createdAt,value
2019-05-23T00:00:14.036Z,1014.22
2019-05-23T00:01:14.028Z,1014.21
2019-05-23T00:03:06.947Z,1014.19
2019-05-23T00:04:06.940Z,1014.22
2019-05-23T00:05:59.858Z,1014.22
2019-05-23T00:06:59.867Z,1014.24
2019-05-23T00:08:53.264Z,1014.21
2019-05-23T00:09:53.271Z,1014.23
2019-05-23T00:11:46.679Z,1014.27
2019-05-23T00:12:46.688Z,1014.27
2019-05-23T00:14:40.087Z,1014.29
2019-05-23T00:15:40.103Z,1014.23
2019-05-23T00:17:33.503Z,1014.28
2019-05-23T00:18:33.509Z,1014.25
2019-05-23T00:20:26.415Z,1014.25
2019-05-23T00:21:26.425Z,1014.23
2019-05-23T00:23:19.337Z,1014.21
2019-05-23T00:24:19.347Z,1014.23
2019-05-23T00:26:12.749Z,1014.23
2019-05-23T00:27:12.779Z,1014.19
2019-05-23T00:29:10.645Z,1014.19
2019-05-23T00:30:06.167Z,1014.20
2019-05-23T00:31:59.079Z,1014.20
2019-05-23T00:32:59.082Z,1014.20
2019-05-23T00:34:51.994Z,1014.17
2019-05-23T00:35:52.002Z,1014.17
2019-05-23T00:37:44.920Z,1014.16
2019-05-23T00:38:44.921Z,1014.14
2019-05-23T00:40:37.836Z,1014.14
2019-05-23T00:41:37.848Z,1014.17
2019-05-23T00:43:31.245Z,1014.11
2019-05-23T00:44:31.271Z,1014.14
2019-05-23T00:46:24.159Z,1014.09
2019-05-23T00:47:24.166Z,1014.10
2019-05-23T00:49:17.072Z,1014.09
2019-05-23T00:50:17.081Z,1014.08
2019-05-23T00:52:10.488Z,1014.09
2019-05-23T00:53:10.492Z,1014.09
2019-05-23T00:55:03.895Z,1014.08
2019-05-23T00:56:03.904Z,1014.05
2019-05-23T00:57:57.313Z,1014.09
2019-05-23T00:58:57.315Z,1014.09
2019-05-23T01:00:50.735Z,1014.16
2019-05-23T01:01:50.728Z,1014.17
2019-05-23T01:03:43.649Z,1014.19
2019-05-23T01:04:43.643Z,1014.15
2019-05-23T01:06:36.547Z,1014.16
2019-05-23T01:07:36.556Z,1014.14
2019-05-23T01:09:29.466Z,1014.18
2019-05-23T01:10:29.472Z,1014.21
2019-05-23T01:12:22.390Z,1014.18
2019-05-23T01:13:22.391Z,1014.20
2019-05-23T01:15:15.792Z,1014.23
2019-05-23T01:16:15.799Z,1014.21
2019-05-23T01:18:08.713Z,1014.23
2019-05-23T01:19:08.716Z,1014.24
2019-05-23T01:21:01.624Z,1014.23
2019-05-23T01:22:01.629Z,1014.22
2019-05-23T01:23:54.542Z,1014.22
2019-05-23T01:24:54.547Z,1014.23
2019-05-23T01:26:47.456Z,1014.24
2019-05-23T01:27:47.461Z,1014.23
2019-05-23T01:29:40.373Z,1014.24
2019-05-23T01:30:40.385Z,1014.24
2019-05-23T01:32:33.291Z,1014.20
2019-05-23T01:33:33.290Z,1014.19
2019-05-23T01:35:26.692Z,1014.23
2019-05-23T01:36:26.701Z,1014.20
2019-05-23T01:38:19.614Z,1014.19
2019-05-23T01:39:19.624Z,1014.18
2019-05-23T01:41:13.022Z,1014.19
2019-05-23T01:42:13.030Z,1014.18
2019-05-23T01:44:05.947Z,1014.19
2019-05-23T01:45:05.942Z,1014.19
2019-05-23T01:46:59.346Z,1014.20
2019-05-23T01:47:59.354Z,1014.20
2019-05-23T01:49:52.261Z,1014.20
2019-05-23T01:50:52.307Z,1014.22
2019-05-23T01:52:45.672Z,1014.21
2019-05-23T01:53:45.680Z,1014.20
2019-05-23T01:55:39.081Z,1014.22
2019-05-23T01:56:39.150Z,1014.21
2019-05-23T01:58:31.998Z,1014.20
2019-05-23T01:59:32.001Z,1014.20
2019-05-23T02:01:25.402Z,1014.20
2019-05-23T02:02:25.415Z,1014.21
2019-05-23T02:04:18.330Z,1014.20
2019-05-23T02:05:18.326Z,1014.24
2019-05-23T02:07:11.724Z,1014.28
2019-05-23T02:08:11.853Z,1014.24
2019-05-23T02:10:04.648Z,1014.30
2019-05-23T02:11:04.648Z,1014.25
2019-05-23T02:12:57.551Z,1014.27
2019-05-23T02:13:57.561Z,1014.27
2019-05-23T02:15:50.469Z,1014.28
2019-05-23T02:16:50.476Z,1014.25
2019-05-23T02:18:43.382Z,1014.25
2019-05-23T02:19:43.384Z,1014.30
2019-05-23T02:21:36.301Z,1014.29
2019-05-23T02:22:36.336Z,1014.25
2019-05-23T02:24:29.209Z,1014.29
2019-05-23T02:25:29.212Z,1014.27
2019-05-23T02:27:22.133Z,1014.21
2019-05-23T02:28:22.129Z,1014.21
2019-05-23T02:30:32.931Z,1014.20
2019-05-23T02:31:15.540Z,1014.13
2019-05-23T02:33:08.938Z,1014.15
2019-05-23T02:34:08.953Z,1014.12
2019-05-23T02:36:02.350Z,1014.13
2019-05-23T02:37:02.355Z,1014.13
2019-05-23T02:38:55.781Z,1014.11
2019-05-23T02:39:55.772Z,1014.11
2019-05-23T02:41:48.665Z,1014.08
2019-05-23T02:42:48.676Z,1014.09
2019-05-23T02:44:42.093Z,1014.08
2019-05-23T02:45:42.085Z,1014.05
2019-05-23T02:47:35.481Z,1014.06
2019-05-23T02:48:35.506Z,1014.06
2019-05-23T02:50:28.896Z,1014.05
2019-05-23T02:51:28.905Z,1014.02
2019-05-23T02:53:21.802Z,1014.04
2019-05-23T02:54:21.809Z,1014.00
2019-05-23T02:56:14.728Z,1014.00
2019-05-23T02:57:14.720Z,1014.01
2019-05-23T02:59:08.121Z,1014.02
2019-05-23T03:00:08.135Z,1014.04
2019-05-23T03:02:01.043Z,1014.04
2019-05-23T03:03:01.037Z,1014.03
2019-05-23T03:04:53.964Z,1014.03
2019-05-23T03:05:53.960Z,1014.00
2019-05-23T03:07:47.360Z,1014.00
2019-05-23T03:08:47.373Z,1014.01
2019-05-23T03:10:40.772Z,1013.94
2019-05-23T03:11:40.773Z,1013.96
2019-05-23T03:13:33.687Z,1013.93
2019-05-23T03:14:33.686Z,1013.94
2019-05-23T03:16:27.089Z,1013.97
2019-05-23T03:17:27.100Z,1013.98
2019-05-23T03:19:19.996Z,1013.96
2019-05-23T03:20:20.007Z,1013.97
2019-05-23T03:22:13.406Z,1013.96
2019-05-23T03:23:13.412Z,1013.97
2019-05-23T03:25:06.815Z,1013.96
2019-05-23T03:26:06.822Z,1013.97
2019-05-23T03:27:59.725Z,1013.97
2019-05-23T03:28:59.729Z,1013.98
2019-05-23T03:31:53.233Z,1013.98
2019-05-23T03:33:46.042Z,1014.00
2019-05-23T03:34:46.053Z,1014.01
2019-05-23T03:36:39.469Z,1014.00
2019-05-23T03:37:39.471Z,1014.00
2019-05-23T03:39:32.873Z,1014.00
2019-05-23T03:40:32.880Z,1013.99
2019-05-23T03:42:25.793Z,1013.99
2019-05-23T03:43:25.797Z,1013.97
2019-05-23T03:45:18.703Z,1013.94
2019-05-23T03:46:18.713Z,1013.93
2019-05-23T03:48:12.125Z,1013.97
2019-05-23T03:49:12.129Z,1013.98
2019-05-23T03:51:05.038Z,1013.97
2019-05-23T03:52:05.043Z,1014.01
2019-05-23T03:53:57.967Z,1014.00
2019-05-23T03:54:57.967Z,1014.00
2019-05-23T03:56:50.879Z,1014.03
2019-05-23T03:57:50.882Z,1013.97
2019-05-23T03:59:43.787Z,1013.98
2019-05-23T04:00:43.796Z,1013.96
2019-05-23T04:02:36.732Z,1013.95
2019-05-23T04:03:39.893Z,1013.95
2019-05-23T04:05:29.652Z,1013.94
2019-05-23T04:06:29.648Z,1013.99
2019-05-23T04:08:22.552Z,1013.95
2019-05-23T04:09:22.560Z,1013.95
2019-05-23T04:11:15.472Z,1013.92
2019-05-23T04:12:15.476Z,1013.93
2019-05-23T04:14:08.382Z,1013.93
2019-05-23T04:15:08.390Z,1013.88
2019-05-23T04:17:01.304Z,1013.89
2019-05-23T04:18:01.306Z,1013.89
2019-05-23T04:19:54.211Z,1013.92
2019-05-23T04:20:54.232Z,1013.94
2019-05-23T04:22:47.141Z,1013.96
2019-05-23T04:23:47.142Z,1013.98
2019-05-23T04:25:40.545Z,1013.96
2019-05-23T04:26:40.558Z,1013.96
2019-05-23T04:28:33.472Z,1013.98
2019-05-23T04:29:33.471Z,1013.98
2019-05-23T04:31:26.386Z,1013.95
2019-05-23T04:32:26.393Z,1013.94
2019-05-23T04:34:19.312Z,1013.97
2019-05-23T04:35:19.321Z,1013.96
2019-05-23T04:37:12.231Z,1013.94
2019-05-23T04:38:12.240Z,1013.92
2019-05-23T04:40:05.154Z,1013.93
2019-05-23T04:41:05.162Z,1013.92
2019-05-23T04:42:58.085Z,1013.91
2019-05-23T04:43:58.083Z,1013.93
2019-05-23T04:45:50.994Z,1013.89
2019-05-23T04:46:51.003Z,1013.89
2019-05-23T04:48:43.914Z,1013.93
2019-05-23T04:49:43.926Z,1013.91
2019-05-23T04:51:36.843Z,1013.96
2019-05-23T04:52:36.853Z,1013.92
2019-05-23T04:54:29.768Z,1013.98
2019-05-23T04:55:29.781Z,1013.99
2019-05-23T04:57:22.697Z,1013.96
2019-05-23T04:58:22.710Z,1013.97
2019-05-23T05:00:15.667Z,1013.99
2019-05-23T05:01:15.630Z,1013.96
2019-05-23T05:03:08.566Z,1013.93
2019-05-23T05:04:08.565Z,1013.94
2019-05-23T05:06:01.476Z,1013.99
2019-05-23T05:07:01.519Z,1013.96
2019-05-23T05:08:54.396Z,1013.96
2019-05-23T05:09:54.419Z,1013.94
2019-05-23T05:11:47.342Z,1013.99
2019-05-23T05:12:47.338Z,1014.01
2019-05-23T05:14:40.253Z,1013.97
2019-05-23T05:15:40.272Z,1013.96
2019-05-23T05:17:33.184Z,1013.94
2019-05-23T05:18:33.193Z,1013.95
2019-05-23T05:20:26.116Z,1013.99
2019-05-23T05:21:26.120Z,1013.97
2019-05-23T05:23:19.042Z,1013.99
2019-05-23T05:24:19.049Z,1014.00
2019-05-23T05:26:11.980Z,1014.00
2019-05-23T05:27:11.982Z,1013.97
2019-05-23T05:29:04.898Z,1014.02
2019-05-23T05:30:04.917Z,1014.06
2019-05-23T05:31:57.830Z,1014.08
2019-05-23T05:32:57.842Z,1014.07
2019-05-23T05:34:50.755Z,1014.12
2019-05-23T05:35:50.769Z,1014.09
2019-05-23T05:37:43.692Z,1014.09
2019-05-23T05:38:43.701Z,1014.11
2019-05-23T05:40:36.623Z,1014.09
2019-05-23T05:41:36.646Z,1014.11
2019-05-23T05:43:29.589Z,1014.15
2019-05-23T05:44:29.570Z,1014.15
2019-05-23T05:46:22.491Z,1014.18
2019-05-23T05:47:22.499Z,1014.15
2019-05-23T05:49:15.450Z,1014.14
2019-05-23T05:50:15.442Z,1014.16
2019-05-23T05:52:08.854Z,1014.13
2019-05-23T05:53:08.871Z,1014.17
2019-05-23T05:55:01.789Z,1014.20
2019-05-23T05:56:01.830Z,1014.21
2019-05-23T05:57:54.732Z,1014.20
2019-05-23T05:58:54.743Z,1014.20
2019-05-23T06:00:47.675Z,1014.27
2019-05-23T06:01:47.680Z,1014.21
2019-05-23T06:03:40.607Z,1014.22
2019-05-23T06:04:40.626Z,1014.28
2019-05-23T06:06:33.543Z,1014.27
2019-05-23T06:07:33.559Z,1014.29
2019-05-23T06:09:26.980Z,1014.32
2019-05-23T06:10:26.995Z,1014.28
2019-05-23T06:12:19.924Z,1014.31
2019-05-23T06:13:19.936Z,1014.33
2019-05-23T06:15:13.374Z,1014.33
2019-05-23T06:16:13.383Z,1014.32
2019-05-23T06:18:06.361Z,1014.33
2019-05-23T06:19:06.326Z,1014.35
2019-05-23T06:20:59.251Z,1014.37
2019-05-23T06:21:59.267Z,1014.37
2019-05-23T06:23:52.199Z,1014.38
2019-05-23T06:24:55.487Z,1014.38
2019-05-23T06:26:45.633Z,1014.37
2019-05-23T06:27:45.654Z,1014.37
2019-05-23T06:29:38.589Z,1014.40
2019-05-23T06:30:38.604Z,1014.40
2019-05-23T06:32:31.537Z,1014.36
2019-05-23T06:33:31.561Z,1014.36
2019-05-23T06:35:24.480Z,1014.34
2019-05-23T06:36:24.500Z,1014.35
2019-05-23T06:38:17.930Z,1014.36
2019-05-23T06:39:17.945Z,1014.35
2019-05-23T06:41:10.877Z,1014.32
2019-05-23T06:42:10.894Z,1014.35
2019-05-23T06:44:03.832Z,1014.30
2019-05-23T06:45:03.849Z,1014.31
2019-05-23T06:46:56.775Z,1014.30
2019-05-23T06:47:56.802Z,1014.27
2019-05-23T06:49:49.732Z,1014.21
2019-05-23T06:50:49.755Z,1014.23
2019-05-23T06:52:42.680Z,1014.24
2019-05-23T06:53:42.698Z,1014.27
2019-05-23T06:55:35.623Z,1014.20
2019-05-23T06:56:35.652Z,1014.26
2019-05-23T06:58:28.608Z,1014.30
2019-05-23T06:59:28.596Z,1014.30
2019-05-23T07:01:21.521Z,1014.25
2019-05-23T07:02:21.543Z,1014.22
2019-05-23T07:04:14.479Z,1014.28
2019-05-23T07:05:14.497Z,1014.27
2019-05-23T07:07:07.422Z,1014.28
2019-05-23T07:08:07.445Z,1014.26
2019-05-23T07:10:01.567Z,1014.24
2019-05-23T07:11:00.403Z,1014.26
2019-05-23T07:12:53.331Z,1014.28
2019-05-23T07:13:53.346Z,1014.28
2019-05-23T07:15:46.282Z,1014.30
2019-05-23T07:16:50.063Z,1014.25
2019-05-23T07:18:39.232Z,1014.22
2019-05-23T07:19:39.251Z,1014.23
2019-05-23T07:21:32.222Z,1014.21
2019-05-23T07:22:32.199Z,1014.20
2019-05-23T07:24:25.134Z,1014.20
2019-05-23T07:25:25.143Z,1014.23
2019-05-23T07:27:18.072Z,1014.16
2019-05-23T07:28:18.090Z,1014.18
2019-05-23T07:30:11.062Z,1014.18
2019-05-23T07:31:11.030Z,1014.19
2019-05-23T07:33:03.958Z,1014.17
2019-05-23T07:34:04.025Z,1014.16
2019-05-23T07:35:56.909Z,1014.13
2019-05-23T07:36:56.931Z,1014.14
2019-05-23T07:38:49.841Z,1014.14
2019-05-23T07:39:49.858Z,1014.13
2019-05-23T07:41:42.777Z,1014.17
2019-05-23T07:42:42.793Z,1014.16
2019-05-23T07:44:47.913Z,1014.14
2019-05-23T07:45:39.607Z,1014.13
2019-05-23T07:47:28.649Z,1014.16
2019-05-23T07:48:28.695Z,1014.13
2019-05-23T07:50:21.595Z,1014.13
2019-05-23T07:51:21.605Z,1014.16
2019-05-23T07:53:14.530Z,1014.14
2019-05-23T07:54:14.684Z,1014.14
2019-05-23T07:56:07.471Z,1014.16
2019-05-23T07:57:07.479Z,1014.12
2019-05-23T07:59:00.402Z,1014.14
2019-05-23T08:00:00.420Z,1014.17
2019-05-23T08:01:53.343Z,1014.19
2019-05-23T08:02:53.357Z,1014.16
2019-05-23T08:04:46.335Z,1014.13
2019-05-23T08:05:46.329Z,1014.17
2019-05-23T08:07:39.219Z,1014.14
2019-05-23T08:08:39.233Z,1014.14
2019-05-23T08:10:34.124Z,1014.15
2019-05-23T08:11:32.168Z,1014.19
2019-05-23T08:13:25.097Z,1014.13
2019-05-23T08:14:25.106Z,1014.20
2019-05-23T08:16:18.033Z,1014.15
2019-05-23T08:17:18.075Z,1014.16
2019-05-23T08:19:10.979Z,1014.15
2019-05-23T08:20:10.984Z,1014.14
2019-05-23T08:22:03.909Z,1014.15
2019-05-23T08:23:03.926Z,1014.12
2019-05-23T08:24:56.851Z,1014.11
2019-05-23T08:25:56.862Z,1014.13
2019-05-23T08:27:49.810Z,1014.11
2019-05-23T08:29:12.569Z,1014.11
2019-05-23T08:30:42.726Z,1014.12
2019-05-23T08:31:42.742Z,1014.11
2019-05-23T08:33:35.662Z,1014.09
2019-05-23T08:34:41.494Z,1014.05
2019-05-23T08:36:28.603Z,1014.04
2019-05-23T08:37:28.620Z,1014.04
2019-05-23T08:39:21.561Z,1014.03
2019-05-23T08:40:21.578Z,1014.01
2019-05-23T08:42:14.502Z,1013.99
2019-05-23T08:43:14.663Z,1014.04
2019-05-23T08:45:07.440Z,1014.04
2019-05-23T08:46:07.459Z,1014.06
2019-05-23T08:48:00.892Z,1014.04
2019-05-23T08:49:00.894Z,1014.01
2019-05-23T08:50:53.817Z,1014.03
2019-05-23T08:51:53.829Z,1014.04
2019-05-23T08:53:46.758Z,1013.99
2019-05-23T08:54:46.777Z,1014.03
2019-05-23T08:56:39.723Z,1014.03
2019-05-23T08:57:39.715Z,1013.99
2019-05-23T08:59:32.639Z,1013.98
2019-05-23T09:00:32.687Z,1014.00
2019-05-23T09:02:25.580Z,1014.01
2019-05-23T09:03:25.606Z,1013.99
2019-05-23T09:05:18.517Z,1013.93
2019-05-23T09:06:18.579Z,1013.91
2019-05-23T09:08:11.455Z,1013.89
2019-05-23T09:09:28.610Z,1013.86
2019-05-23T09:11:04.410Z,1013.88
2019-05-23T09:12:04.415Z,1013.87
2019-05-23T09:13:57.338Z,1013.90
2019-05-23T09:14:57.352Z,1013.89
2019-05-23T09:16:50.288Z,1013.85
2019-05-23T09:17:53.411Z,1013.86
2019-05-23T09:19:43.715Z,1013.84
2019-05-23T09:20:43.722Z,1013.81
2019-05-23T09:22:36.653Z,1013.83
2019-05-23T09:23:36.662Z,1013.85
2019-05-23T09:25:29.589Z,1013.79
2019-05-23T09:26:29.600Z,1013.82
2019-05-23T09:28:22.526Z,1013.80
2019-05-23T09:29:22.557Z,1013.77
2019-05-23T09:31:15.967Z,1013.77
2019-05-23T09:32:15.984Z,1013.76
2019-05-23T09:34:08.902Z,1013.78
2019-05-23T09:35:20.129Z,1013.77
2019-05-23T09:37:01.845Z,1013.75
2019-05-23T09:38:01.859Z,1013.74
2019-05-23T09:39:54.775Z,1013.76
2019-05-23T09:40:54.812Z,1013.75
2019-05-23T09:42:47.736Z,1013.70
2019-05-23T09:43:47.732Z,1013.69
2019-05-23T09:45:40.667Z,1013.66
2019-05-23T09:46:40.671Z,1013.65
2019-05-23T09:48:33.594Z,1013.63
2019-05-23T09:49:33.609Z,1013.68
2019-05-23T09:51:26.539Z,1013.67
2019-05-23T09:52:26.549Z,1013.68
2019-05-23T09:54:19.495Z,1013.66
2019-05-23T09:55:19.496Z,1013.60
2019-05-23T09:57:12.421Z,1013.59
2019-05-23T09:58:12.478Z,1013.59
2019-05-23T10:00:05.365Z,1013.59
2019-05-23T10:01:05.373Z,1013.59
2019-05-23T10:02:58.314Z,1013.56
2019-05-23T10:03:58.315Z,1013.56
2019-05-23T10:05:51.889Z,1013.55
2019-05-23T10:06:51.745Z,1013.56
2019-05-23T10:08:44.667Z,1013.54
2019-05-23T10:09:44.684Z,1013.49
2019-05-23T10:11:37.634Z,1013.50
2019-05-23T10:12:37.633Z,1013.46
2019-05-23T10:14:30.551Z,1013.50
2019-05-23T10:15:30.577Z,1013.50
2019-05-23T10:17:23.554Z,1013.49
2019-05-23T10:18:23.512Z,1013.44
2019-05-23T10:20:16.450Z,1013.44
2019-05-23T10:21:16.470Z,1013.41
2019-05-23T10:23:09.400Z,1013.43
2019-05-23T10:24:09.422Z,1013.40
2019-05-23T10:26:02.343Z,1013.36
2019-05-23T10:27:02.355Z,1013.38
2019-05-23T10:28:55.779Z,1013.34
2019-05-23T10:29:55.798Z,1013.35
2019-05-23T10:31:48.731Z,1013.38
2019-05-23T10:32:48.741Z,1013.41
2019-05-23T10:34:41.717Z,1013.36
2019-05-23T10:35:56.906Z,1013.31
2019-05-23T10:37:34.623Z,1013.31
2019-05-23T10:38:34.636Z,1013.23
2019-05-23T10:40:27.564Z,1013.26
2019-05-23T10:41:27.582Z,1013.28
2019-05-23T10:43:20.544Z,1013.23
2019-05-23T10:44:20.521Z,1013.25
2019-05-23T10:46:13.453Z,1013.24
2019-05-23T10:47:13.467Z,1013.22
2019-05-23T10:49:06.397Z,1013.19
2019-05-23T10:50:08.946Z,1013.16
2019-05-23T10:51:59.343Z,1013.12
2019-05-23T10:52:59.354Z,1013.13
2019-05-23T10:54:52.280Z,1013.12
2019-05-23T10:55:52.300Z,1013.12
2019-05-23T10:57:45.233Z,1013.12
2019-05-23T10:58:45.243Z,1013.09
2019-05-23T11:00:38.169Z,1013.07
2019-05-23T11:01:38.186Z,1013.05
2019-05-23T11:03:31.123Z,1012.97
2019-05-23T11:04:31.187Z,1013.01
2019-05-23T11:06:24.066Z,1013.03
2019-05-23T11:07:24.077Z,1013.00
2019-05-23T11:09:17.017Z,1012.96
2019-05-23T11:10:17.023Z,1012.96
2019-05-23T11:12:10.444Z,1012.97
2019-05-23T11:13:10.456Z,1012.96
2019-05-23T11:15:03.395Z,1012.99
2019-05-23T11:16:03.400Z,1012.97
2019-05-23T11:17:56.334Z,1013.00
2019-05-23T11:18:56.344Z,1012.99
2019-05-23T11:20:49.270Z,1013.01
2019-05-23T11:21:49.286Z,1012.93
2019-05-23T11:23:42.220Z,1012.90
2019-05-23T11:24:42.236Z,1012.85
2019-05-23T11:26:35.166Z,1012.86
2019-05-23T11:27:35.175Z,1012.91
2019-05-23T11:29:28.105Z,1012.92
2019-05-23T11:30:28.123Z,1012.85
2019-05-23T11:32:21.059Z,1012.86
2019-05-23T11:33:21.063Z,1012.86
2019-05-23T11:35:13.990Z,1012.83
2019-05-23T11:36:14.011Z,1012.87
2019-05-23T11:38:06.962Z,1012.88
2019-05-23T11:39:06.949Z,1012.84
2019-05-23T11:41:00.368Z,1012.82
2019-05-23T11:42:00.388Z,1012.79
2019-05-23T11:43:53.321Z,1012.78
2019-05-23T11:44:53.336Z,1012.76
2019-05-23T11:46:46.763Z,1012.75
2019-05-23T11:47:46.777Z,1012.71
2019-05-23T11:49:40.076Z,1012.67
2019-05-23T11:50:39.713Z,1012.68
2019-05-23T11:52:32.644Z,1012.64
2019-05-23T11:53:32.658Z,1012.68
2019-05-23T11:55:25.580Z,1012.67
2019-05-23T11:56:25.598Z,1012.66
2019-05-23T11:58:18.534Z,1012.62
2019-05-23T11:59:18.543Z,1012.60
2019-05-23T12:01:19.851Z,1012.60
2019-05-23T12:02:11.493Z,1012.61
2019-05-23T12:04:04.416Z,1012.60
2019-05-23T12:05:04.446Z,1012.57
2019-05-23T12:06:57.361Z,1012.55
2019-05-23T12:07:57.372Z,1012.57
2019-05-23T12:09:50.298Z,1012.53
2019-05-23T12:10:50.314Z,1012.49
2019-05-23T12:12:43.278Z,1012.49
2019-05-23T12:13:43.279Z,1012.48
2019-05-23T12:15:36.203Z,1012.51
2019-05-23T12:16:36.221Z,1012.48
2019-05-23T12:18:29.156Z,1012.49
2019-05-23T12:19:29.216Z,1012.47
2019-05-23T12:21:22.102Z,1012.55
2019-05-23T12:22:22.116Z,1012.50
2019-05-23T12:24:15.052Z,1012.49
2019-05-23T12:25:23.340Z,1012.48
2019-05-23T12:27:08.093Z,1012.54
2019-05-23T12:28:08.052Z,1012.48
2019-05-23T12:30:00.929Z,1012.50
2019-05-23T12:31:00.948Z,1012.49
2019-05-23T12:32:53.893Z,1012.44
2019-05-23T12:33:53.898Z,1012.44
2019-05-23T12:35:46.818Z,1012.44
2019-05-23T12:36:46.840Z,1012.40
2019-05-23T12:38:40.302Z,1012.39
2019-05-23T12:39:40.294Z,1012.42
2019-05-23T12:41:33.227Z,1012.37
2019-05-23T12:42:33.246Z,1012.35
2019-05-23T12:44:26.665Z,1012.31
2019-05-23T12:45:26.683Z,1012.32
2019-05-23T12:47:19.614Z,1012.27
2019-05-23T12:48:19.629Z,1012.25
2019-05-23T12:50:12.616Z,1012.25
2019-05-23T12:51:12.584Z,1012.21
2019-05-23T12:53:05.504Z,1012.23
2019-05-23T12:54:05.532Z,1012.24
2019-05-23T12:55:58.452Z,1012.17
2019-05-23T12:56:58.463Z,1012.19
2019-05-23T12:58:51.396Z,1012.20
2019-05-23T12:59:51.413Z,1012.17
2019-05-23T13:01:44.371Z,1012.14
2019-05-23T13:02:44.382Z,1012.13
2019-05-23T13:04:37.314Z,1012.16
2019-05-23T13:05:37.326Z,1012.17
2019-05-23T13:07:36.116Z,1012.22
2019-05-23T13:08:30.771Z,1012.20
2019-05-23T13:10:25.047Z,1012.20
2019-05-23T13:11:23.720Z,1012.21
2019-05-23T13:13:16.647Z,1012.18
2019-05-23T13:14:16.665Z,1012.13
2019-05-23T13:16:09.594Z,1012.10
2019-05-23T13:17:09.613Z,1012.12
2019-05-23T13:19:02.561Z,1012.09
2019-05-23T13:20:02.569Z,1012.10
2019-05-23T13:21:55.495Z,1012.05
2019-05-23T13:22:55.525Z,1012.05
2019-05-23T13:24:52.719Z,1012.03
2019-05-23T13:25:48.471Z,1012.01
2019-05-23T13:27:41.399Z,1011.99
2019-05-23T13:28:41.414Z,1011.97
2019-05-23T13:30:34.390Z,1011.98
2019-05-23T13:31:34.367Z,1011.98
2019-05-23T13:33:27.317Z,1011.96
2019-05-23T13:34:27.345Z,1011.99
2019-05-23T13:36:20.251Z,1011.98
2019-05-23T13:37:20.273Z,1011.99
2019-05-23T13:39:13.204Z,1012.01
2019-05-23T13:40:13.218Z,1012.03
2019-05-23T13:42:06.154Z,1011.95
2019-05-23T13:43:08.598Z,1011.97
2019-05-23T13:44:59.108Z,1011.92
2019-05-23T13:45:59.129Z,1011.90
2019-05-23T13:47:52.077Z,1011.95
2019-05-23T13:48:52.143Z,1011.93
2019-05-23T13:50:45.014Z,1011.93
2019-05-23T13:51:45.036Z,1011.92
2019-05-23T13:53:38.460Z,1011.91
2019-05-23T13:54:38.480Z,1011.89
2019-05-23T13:56:31.407Z,1011.88
2019-05-23T13:57:31.428Z,1011.84
2019-05-23T13:59:24.393Z,1011.79
2019-05-23T14:00:24.389Z,1011.79
2019-05-23T14:02:17.310Z,1011.79
2019-05-23T14:03:17.334Z,1011.73
2019-05-23T14:05:10.296Z,1011.76
2019-05-23T14:06:10.286Z,1011.76
2019-05-23T14:08:12.126Z,1011.68
2019-05-23T14:09:03.727Z,1011.68
2019-05-23T14:10:56.661Z,1011.60
2019-05-23T14:12:19.947Z,1011.62
2019-05-23T14:13:59.119Z,1011.59
2019-05-23T14:14:49.627Z,1011.59
2019-05-23T14:16:42.559Z,1011.56
2019-05-23T14:17:42.578Z,1011.63
2019-05-23T14:19:35.515Z,1011.63
2019-05-23T14:20:35.532Z,1011.61
2019-05-23T14:22:28.465Z,1011.61
2019-05-23T14:23:28.484Z,1011.60
2019-05-23T14:25:21.425Z,1011.59
2019-05-23T14:26:21.439Z,1011.64
2019-05-23T14:28:14.369Z,1011.66
2019-05-23T14:29:14.388Z,1011.63
2019-05-23T14:31:07.819Z,1011.59
2019-05-23T14:32:07.836Z,1011.62
2019-05-23T14:34:00.784Z,1011.60
2019-05-23T14:35:00.789Z,1011.56
2019-05-23T14:36:54.229Z,1011.57
2019-05-23T14:37:54.248Z,1011.52
2019-05-23T14:39:47.185Z,1011.54
2019-05-23T14:40:47.204Z,1011.55
2019-05-23T14:42:40.133Z,1011.57
2019-05-23T14:43:40.159Z,1011.56
2019-05-23T14:45:33.100Z,1011.60
2019-05-23T14:46:33.110Z,1011.59
2019-05-23T14:48:26.045Z,1011.55
2019-05-23T14:49:26.066Z,1011.55
2019-05-23T14:51:19.000Z,1011.53
2019-05-23T14:52:19.020Z,1011.54
2019-05-23T14:54:12.106Z,1011.54
2019-05-23T14:55:12.122Z,1011.51
2019-05-23T14:57:05.054Z,1011.53
2019-05-23T14:58:05.077Z,1011.51
2019-05-23T14:59:58.027Z,1011.51
2019-05-23T15:00:58.025Z,1011.47
2019-05-23T15:02:50.954Z,1011.50
2019-05-23T15:03:50.978Z,1011.49
2019-05-23T15:05:43.916Z,1011.50
2019-05-23T15:06:43.926Z,1011.44
2019-05-23T15:08:50.262Z,1011.43
2019-05-23T15:09:36.883Z,1011.39
2019-05-23T15:11:31.317Z,1011.38
2019-05-23T15:12:31.334Z,1011.38
2019-05-23T15:14:24.260Z,1011.37
2019-05-23T15:15:24.301Z,1011.33
2019-05-23T15:17:17.223Z,1011.34
2019-05-23T15:18:17.231Z,1011.39
2019-05-23T15:20:10.168Z,1011.32
2019-05-23T15:21:10.184Z,1011.30
2019-05-23T15:23:03.110Z,1011.28
2019-05-23T15:24:03.159Z,1011.28
2019-05-23T15:25:56.064Z,1011.32
2019-05-23T15:26:56.077Z,1011.33
2019-05-23T15:28:49.525Z,1011.29
2019-05-23T15:29:49.569Z,1011.28
2019-05-23T15:31:42.448Z,1011.26
2019-05-23T15:32:42.472Z,1011.29
2019-05-23T15:34:35.616Z,1011.23
2019-05-23T15:35:35.418Z,1011.24
2019-05-23T15:37:28.355Z,1011.20
2019-05-23T15:38:28.370Z,1011.26
2019-05-23T15:40:21.809Z,1011.19
2019-05-23T15:41:21.828Z,1011.21
2019-05-23T15:43:15.267Z,1011.20
2019-05-23T15:44:25.930Z,1011.19
2019-05-23T15:46:08.306Z,1011.19
2019-05-23T15:47:08.242Z,1011.17
2019-05-23T15:49:01.642Z,1011.17
2019-05-23T15:50:06.098Z,1011.15
2019-05-23T15:51:54.656Z,1011.13
2019-05-23T15:52:54.627Z,1011.15
2019-05-23T15:54:47.845Z,1011.05
2019-05-23T15:55:47.563Z,1011.04
2019-05-23T15:57:40.495Z,1011.02
2019-05-23T15:58:40.515Z,1010.95
2019-05-23T16:00:33.581Z,1011.00
2019-05-23T16:01:33.613Z,1011.01
2019-05-23T16:03:27.034Z,1010.98
2019-05-23T16:04:27.077Z,1010.99
2019-05-23T16:06:19.988Z,1011.02
2019-05-23T16:07:20.003Z,1011.05
2019-05-23T16:09:27.596Z,1010.99
2019-05-23T16:10:12.957Z,1011.01
2019-05-23T16:12:06.384Z,1010.93
2019-05-23T16:13:06.399Z,1010.92
2019-05-23T16:14:59.815Z,1010.90
2019-05-23T16:15:59.841Z,1010.85
2019-05-23T16:17:52.775Z,1010.88
2019-05-23T16:18:52.873Z,1010.87
2019-05-23T16:20:46.235Z,1010.87
2019-05-23T16:21:46.240Z,1010.84
2019-05-23T16:23:40.164Z,1010.82
2019-05-23T16:24:40.181Z,1010.84
2019-05-23T16:26:33.116Z,1010.80
2019-05-23T16:27:33.174Z,1010.80
2019-05-23T16:29:26.052Z,1010.85
2019-05-23T16:30:26.071Z,1010.84
2019-05-23T16:32:19.499Z,1010.81
2019-05-23T16:33:19.513Z,1010.80
2019-05-23T16:35:12.451Z,1010.82
2019-05-23T16:36:12.620Z,1010.86
2019-05-23T16:38:05.919Z,1010.85
2019-05-23T16:39:05.935Z,1010.87
2019-05-23T16:40:58.852Z,1010.86
2019-05-23T16:41:58.870Z,1010.87
2019-05-23T16:43:51.879Z,1010.86
2019-05-23T16:44:51.817Z,1010.87
2019-05-23T16:46:44.753Z,1010.86
2019-05-23T16:47:44.777Z,1010.82
2019-05-23T16:49:38.685Z,1010.82
2019-05-23T16:50:38.707Z,1010.81
2019-05-23T16:52:31.664Z,1010.81
2019-05-23T16:53:35.558Z,1010.79
2019-05-23T16:55:24.659Z,1010.80
2019-05-23T16:56:24.628Z,1010.77
2019-05-23T16:58:17.576Z,1010.77
2019-05-23T16:59:17.571Z,1010.72
2019-05-23T17:01:23.564Z,1010.78
2019-05-23T17:02:10.514Z,1010.78
2019-05-23T17:04:03.941Z,1010.78
2019-05-23T17:05:09.794Z,1010.77
2019-05-23T17:06:56.887Z,1010.78
2019-05-23T17:07:56.904Z,1010.73
2019-05-23T17:10:06.757Z,1010.73
2019-05-23T17:10:49.853Z,1010.74
2019-05-23T17:12:42.784Z,1010.74
2019-05-23T17:13:42.804Z,1010.73
2019-05-23T17:15:36.232Z,1010.77
2019-05-23T17:16:36.246Z,1010.79
2019-05-23T17:18:29.172Z,1010.77
2019-05-23T17:19:29.203Z,1010.74
2019-05-23T17:21:22.606Z,1010.75
2019-05-23T17:22:22.625Z,1010.76
2019-05-23T17:24:15.558Z,1010.72
2019-05-23T17:25:15.634Z,1010.73
2019-05-23T17:27:08.991Z,1010.73